createdAt,value
2022-08-03T00:02:42.517Z,59.13
2022-08-03T00:12:45.464Z,59.43
2022-08-03T00:22:49.089Z,59.40
2022-08-03T00:32:52.868Z,59.38
2022-08-03T00:42:59.576Z,59.59
2022-08-03T00:53:18.568Z,59.72
2022-08-03T01:03:21.997Z,59.89
2022-08-03T01:14:01.946Z,60.00
2022-08-03T01:24:56.469Z,59.93
2022-08-03T01:35:11.850Z,59.91
2022-08-03T01:45:19.071Z,59.88
2022-08-03T01:55:24.211Z,60.07
2022-08-03T02:05:28.387Z,59.77
2022-08-03T02:15:34.309Z,59.86
2022-08-03T02:25:53.586Z,60.04
2022-08-03T02:35:58.286Z,60.01
2022-08-03T02:46:01.264Z,60.41
2022-08-03T02:56:05.632Z,60.18
2022-08-03T03:06:09.559Z,60.28
2022-08-03T03:16:14.193Z,60.21
2022-08-03T03:26:17.898Z,60.46
2022-08-03T03:36:20.761Z,60.68
2022-08-03T03:46:23.707Z,61.09
2022-08-03T03:56:27.449Z,61.21
2022-08-03T04:06:48.638Z,61.09
2022-08-03T04:16:57.094Z,61.36
2022-08-03T04:27:03.002Z,61.72
2022-08-03T04:37:12.950Z,61.87
2022-08-03T04:47:16.832Z,62.30
2022-08-03T04:57:23.110Z,62.23
2022-08-03T05:07:26.274Z,61.52
2022-08-03T05:17:38.934Z,61.40
2022-08-03T05:27:42.085Z,61.60
2022-08-03T05:37:54.690Z,61.64
2022-08-03T05:48:03.886Z,61.69
2022-08-03T05:58:07.088Z,62.06
2022-08-03T06:08:09.968Z,61.03
2022-08-03T06:21:59.006Z,60.68
2022-08-03T06:32:02.575Z,60.80
2022-08-03T06:42:05.790Z,60.53
2022-08-03T06:52:12.716Z,60.61
2022-08-03T07:02:35.414Z,58.89
2022-08-03T07:12:38.983Z,57.28
2022-08-03T07:22:59.081Z,56.56
2022-08-03T07:33:01.798Z,53.31
2022-08-03T07:43:05.430Z,53.12
2022-08-03T07:53:08.308Z,50.61
2022-08-03T08:03:11.869Z,47.09
2022-08-03T08:13:15.071Z,43.75
2022-08-03T08:23:42.531Z,41.50
2022-08-03T08:34:03.638Z,40.62
2022-08-03T08:44:08.576Z,39.85
2022-08-03T08:54:11.924Z,40.72
2022-08-03T09:04:14.741Z,39.72
2022-08-03T09:14:36.648Z,41.21
2022-08-03T09:25:22.613Z,41.49
2022-08-03T09:35:51.659Z,40.30
2022-08-03T09:45:51.217Z,39.36
2022-08-03T09:56:33.433Z,39.31
2022-08-03T10:06:22.694Z,40.60
2022-08-03T10:16:38.826Z,42.85
2022-08-03T10:26:49.489Z,44.80
2022-08-03T10:36:57.371Z,45.51
2022-08-03T10:47:01.184Z,42.43
2022-08-03T10:57:22.429Z,39.76
2022-08-03T11:07:26.120Z,33.05
2022-08-03T11:17:29.076Z,37.41
2022-08-03T11:27:35.389Z,34.77
2022-08-03T11:38:01.436Z,34.74
2022-08-03T11:48:16.403Z,35.10
2022-08-03T11:59:00.956Z,35.69
2022-08-03T12:08:44.737Z,32.66
2022-08-03T12:19:08.473Z,35.71
2022-08-03T12:29:22.546Z,35.45
2022-08-03T12:39:27.842Z,37.14
2022-08-03T12:49:45.678Z,37.30
2022-08-03T12:59:52.878Z,36.87
2022-08-03T13:09:57.018Z,38.26
2022-08-03T13:19:59.665Z,40.30
2022-08-03T13:30:02.549Z,40.90
2022-08-03T13:40:07.346Z,42.38
2022-08-03T13:50:10.012Z,44.12
2022-08-03T14:00:13.209Z,45.41
2022-08-03T14:10:29.481Z,46.20
2022-08-03T14:20:38.125Z,45.62
2022-08-03T14:30:49.633Z,43.28
2022-08-03T14:40:53.413Z,41.63
2022-08-03T14:50:57.019Z,38.49
2022-08-03T15:00:59.795Z,38.98
2022-08-03T15:11:02.571Z,34.78
2022-08-03T15:21:07.538Z,34.52
2022-08-03T15:31:24.376Z,34.31
2022-08-03T15:41:27.016Z,34.97
2022-08-03T15:51:30.184Z,34.89
2022-08-03T16:01:33.231Z,36.13
2022-08-03T16:11:36.363Z,36.50
2022-08-03T16:21:48.895Z,37.15
2022-08-03T16:31:53.207Z,37.29
2022-08-03T16:42:01.022Z,39.08
2022-08-03T16:52:07.128Z,40.00
2022-08-03T17:02:26.166Z,41.02
2022-08-03T17:12:29.723Z,42.78
2022-08-03T17:22:37.891Z,43.10
2022-08-03T17:32:52.706Z,44.35
2022-08-03T17:43:01.226Z,45.13
2022-08-03T17:53:29.583Z,45.74
2022-08-03T18:03:57.889Z,46.70
2022-08-03T18:14:19.934Z,47.46
2022-08-03T18:24:29.172Z,48.02
2022-08-03T18:34:34.853Z,48.67
2022-08-03T18:44:53.849Z,49.22
2022-08-03T18:55:20.683Z,49.74
2022-08-03T19:05:56.227Z,51.34
2022-08-03T19:15:57.289Z,51.44
2022-08-03T19:26:00.870Z,51.59
2022-08-03T19:36:07.334Z,52.05
2022-08-03T19:46:14.220Z,52.20
2022-08-03T19:56:23.768Z,52.26
2022-08-03T20:10:12.594Z,52.51
2022-08-03T20:20:32.968Z,52.64
2022-08-03T20:30:36.500Z,53.17
2022-08-03T20:40:40.080Z,53.29
2022-08-03T20:50:44.141Z,53.01
2022-08-03T21:00:49.141Z,53.32
2022-08-03T21:10:57.737Z,53.51
2022-08-03T21:21:03.812Z,53.22
2022-08-03T21:31:07.140Z,53.26
2022-08-03T21:41:10.384Z,53.51
2022-08-03T21:51:16.936Z,53.91
2022-08-03T22:10:12.006Z,54.00
2022-08-03T22:20:15.838Z,54.23
2022-08-03T22:39:25.521Z,54.32
2022-08-03T22:49:29.691Z,54.39
2022-08-03T22:59:41.330Z,54.38
2022-08-03T23:09:47.496Z,54.69
2022-08-03T23:19:54.128Z,54.72
2022-08-03T23:29:58.919Z,54.90
2022-08-03T23:40:03.687Z,54.99
2022-08-03T23:50:06.856Z,55.07
